QQE709 OTBD-OLBA
Flight info
| Callsign | QQE709 |
|---|---|
| Flight time | 2h 36m |
| Altitude | 43000 |
| Route | TULUB3N/33 TULUB DCT BHR DCT KFA DCT JBL DCT COPPI DCT HFR DCT VATIM DCT AAR DCT OVANO DCT FIRAS R655 LEBOR |
| Aircraft | GLF6/M-SBDE2E3FGHIJ4J5M1RWXY/LB1D1 |
Departure
| Time | 2026-05-08 17:51 |
|---|---|
| Airport | Doha International Airport (OTBD) |
Arrival
| Time | 2026-05-08 20:27 |
|---|---|
| Airport | Beirut Rafic Hariri International Airport (OLBA) |
| Time | Latitude | Longitude | Altitude | Speed | Heading |
|---|---|---|---|---|---|
| 2026-05-08 17:27 | 25.26524 | 51.56010 | 43 ft | 0 kts | 248° |
| 2026-05-08 17:41 | 25.26529 | 51.56025 | 43 ft | 2 kts | 248° |
| 2026-05-08 17:41 | 25.26535 | 51.56040 | 43 ft | 2 kts | 248° |
| 2026-05-08 17:41 | 25.26538 | 51.56050 | 43 ft | 2 kts | 247° |
| 2026-05-08 17:41 | 25.26546 | 51.56065 | 43 ft | 2 kts | 230° |
| 2026-05-08 17:42 | 25.26557 | 51.56076 | 43 ft | 2 kts | 215° |
| 2026-05-08 17:42 | 25.26570 | 51.56084 | 43 ft | 2 kts | 199° |
| 2026-05-08 17:42 | 25.26584 | 51.56089 | 43 ft | 2 kts | 185° |
| 2026-05-08 17:42 | 25.26599 | 51.56088 | 43 ft | 2 kts | 169° |
| 2026-05-08 17:43 | 25.26611 | 51.56084 | 43 ft | 1 kts | 158° |
| 2026-05-08 17:43 | 25.26612 | 51.56084 | 43 ft | 0 kts | 158° |
| 2026-05-08 17:46 | 25.26611 | 51.56084 | 43 ft | 0 kts | 158° |
| 2026-05-08 17:46 | 25.26584 | 51.56097 | 43 ft | 10 kts | 157° |
| 2026-05-08 17:46 | 25.26501 | 51.56134 | 43 ft | 12 kts | 158° |
| 2026-05-08 17:46 | 25.26413 | 51.56174 | 41 ft | 15 kts | 158° |
| 2026-05-08 17:47 | 25.26301 | 51.56223 | 39 ft | 17 kts | 158° |
| 2026-05-08 17:47 | 25.26186 | 51.56274 | 38 ft | 17 kts | 158° |
| 2026-05-08 17:47 | 25.26072 | 51.56324 | 37 ft | 17 kts | 159° |
| 2026-05-08 17:47 | 25.25996 | 51.56358 | 36 ft | 17 kts | 158° |
| 2026-05-08 17:48 | 25.25837 | 51.56427 | 32 ft | 18 kts | 160° |
| 2026-05-08 17:48 | 25.25712 | 51.56482 | 31 ft | 18 kts | 158° |
| 2026-05-08 17:48 | 25.25590 | 51.56536 | 30 ft | 18 kts | 159° |
| 2026-05-08 17:48 | 25.25470 | 51.56589 | 29 ft | 17 kts | 159° |
| 2026-05-08 17:49 | 25.25355 | 51.56641 | 28 ft | 17 kts | 158° |
| 2026-05-08 17:49 | 25.25246 | 51.56687 | 29 ft | 15 kts | 159° |
| 2026-05-08 17:49 | 25.25149 | 51.56731 | 31 ft | 13 kts | 158° |
| 2026-05-08 17:49 | 25.25088 | 51.56776 | 32 ft | 8 kts | 104° |
| 2026-05-08 17:50 | 25.25105 | 51.56839 | 32 ft | 8 kts | 68° |
| 2026-05-08 17:50 | 25.25126 | 51.56897 | 31 ft | 7 kts | 69° |
| 2026-05-08 17:50 | 25.25163 | 51.56923 | 29 ft | 7 kts | 351° |
| 2026-05-08 17:50 | 25.25225 | 51.56894 | 27 ft | 14 kts | 337° |
| 2026-05-08 17:51 | 25.25509 | 51.56767 | 26 ft | 81 kts | 338° |
| 2026-05-08 17:51 | 25.26248 | 51.56449 | 91 ft | 137 kts | 338° |
| 2026-05-08 17:51 | 25.27119 | 51.56073 | 825 ft | 131 kts | 338° |
| 2026-05-08 17:51 | 25.27966 | 51.55680 | 1478 ft | 146 kts | 341° |
| 2026-05-08 17:52 | 25.28984 | 51.55238 | 2218 ft | 162 kts | 340° |
| 2026-05-08 17:52 | 25.30033 | 51.54778 | 3030 ft | 170 kts | 340° |
| 2026-05-08 17:52 | 25.32313 | 51.53455 | 4261 ft | 210 kts | 313° |
| 2026-05-08 17:53 | 25.33178 | 51.51953 | 4724 ft | 246 kts | 303° |
| 2026-05-08 17:53 | 25.34116 | 51.50213 | 5324 ft | 275 kts | 302° |
| 2026-05-08 17:53 | 25.35111 | 51.48424 | 6504 ft | 277 kts | 302° |
| 2026-05-08 17:53 | 25.36158 | 51.46611 | 7585 ft | 282 kts | 303° |
| 2026-05-08 17:54 | 25.37308 | 51.44798 | 8592 ft | 288 kts | 313° |
| 2026-05-08 17:54 | 25.39110 | 51.43684 | 9522 ft | 297 kts | 346° |
| 2026-05-08 17:54 | 25.41183 | 51.43207 | 10202 ft | 312 kts | 345° |
| 2026-05-08 17:54 | 25.43492 | 51.42607 | 10207 ft | 353 kts | 347° |
| 2026-05-08 17:55 | 25.46041 | 51.42011 | 10720 ft | 374 kts | 348° |
| 2026-05-08 17:55 | 25.48610 | 51.41442 | 11805 ft | 374 kts | 348° |
| 2026-05-08 17:55 | 25.50749 | 51.40977 | 12382 ft | 381 kts | 348° |
| 2026-05-08 17:55 | 25.53511 | 51.40384 | 13053 ft | 389 kts | 348° |
| 2026-05-08 17:56 | 25.56217 | 51.39805 | 13838 ft | 392 kts | 348° |
| 2026-05-08 17:56 | 25.58932 | 51.39225 | 14537 ft | 395 kts | 348° |
| 2026-05-08 17:56 | 25.61655 | 51.38643 | 15160 ft | 400 kts | 348° |
| 2026-05-08 17:56 | 25.64451 | 51.38045 | 15810 ft | 403 kts | 348° |
| 2026-05-08 17:57 | 25.67200 | 51.37458 | 16440 ft | 405 kts | 347° |
| 2026-05-08 17:57 | 25.69985 | 51.36862 | 17036 ft | 408 kts | 347° |
| 2026-05-08 17:57 | 25.72816 | 51.36256 | 17595 ft | 412 kts | 347° |
| 2026-05-08 17:57 | 25.75678 | 51.35644 | 18109 ft | 416 kts | 347° |
| 2026-05-08 17:58 | 25.78619 | 51.35014 | 18624 ft | 420 kts | 347° |
| 2026-05-08 17:58 | 25.81575 | 51.34381 | 19129 ft | 423 kts | 347° |
| 2026-05-08 17:58 | 25.84491 | 51.33756 | 19572 ft | 427 kts | 346° |
| 2026-05-08 17:58 | 25.87389 | 51.33134 | 20009 ft | 431 kts | 346° |
| 2026-05-08 17:59 | 25.90385 | 51.32491 | 20482 ft | 434 kts | 346° |
| 2026-05-08 17:59 | 25.93462 | 51.31822 | 20874 ft | 437 kts | 345° |
| 2026-05-08 17:59 | 25.96420 | 51.30446 | 21244 ft | 433 kts | 324° |
| 2026-05-08 17:59 | 25.98789 | 51.28119 | 21694 ft | 426 kts | 306° |
| 2026-05-08 18:00 | 26.00292 | 51.25301 | 22075 ft | 421 kts | 289° |
| 2026-05-08 18:00 | 26.02784 | 51.19342 | 22844 ft | 427 kts | 292° |
| 2026-05-08 18:00 | 26.04132 | 51.16391 | 23225 ft | 429 kts | 293° |
| 2026-05-08 18:01 | 26.05505 | 51.13428 | 23584 ft | 432 kts | 292° |
| 2026-05-08 18:01 | 26.06900 | 51.10429 | 23900 ft | 435 kts | 293° |
| 2026-05-08 18:01 | 26.08294 | 51.07441 | 24279 ft | 436 kts | 292° |
| 2026-05-08 18:01 | 26.09697 | 51.04429 | 24521 ft | 440 kts | 292° |
| 2026-05-08 18:02 | 26.11108 | 51.01398 | 24835 ft | 442 kts | 292° |
| 2026-05-08 18:02 | 26.11993 | 50.99335 | 25039 ft | 441 kts | 290° |
| 2026-05-08 18:02 | 26.13682 | 50.95197 | 25424 ft | 443 kts | 289° |
| 2026-05-08 18:02 | 26.14967 | 50.92063 | 25672 ft | 446 kts | 289° |
| 2026-05-08 18:03 | 26.16273 | 50.88885 | 25930 ft | 448 kts | 289° |
| 2026-05-08 18:03 | 26.17567 | 50.85733 | 26194 ft | 449 kts | 289° |
| 2026-05-08 18:03 | 26.18868 | 50.82563 | 26452 ft | 451 kts | 289° |
| 2026-05-08 18:03 | 26.20170 | 50.79387 | 26720 ft | 452 kts | 289° |
| 2026-05-08 18:04 | 26.21484 | 50.76181 | 26908 ft | 454 kts | 289° |
| 2026-05-08 18:04 | 26.22799 | 50.72970 | 27077 ft | 457 kts | 289° |
| 2026-05-08 18:04 | 26.24164 | 50.69632 | 27411 ft | 462 kts | 289° |
| 2026-05-08 18:04 | 26.25568 | 50.66189 | 28412 ft | 464 kts | 288° |
| 2026-05-08 18:05 | 26.26628 | 50.62778 | 29151 ft | 466 kts | 281° |
| 2026-05-08 18:05 | 26.27561 | 50.59326 | 29998 ft | 470 kts | 281° |
| 2026-05-08 18:05 | 26.28512 | 50.55862 | 31106 ft | 467 kts | 281° |
| 2026-05-08 18:05 | 26.29450 | 50.52452 | 32433 ft | 458 kts | 281° |
| 2026-05-08 18:06 | 26.30374 | 50.49096 | 33839 ft | 449 kts | 280° |
| 2026-05-08 18:06 | 26.31290 | 50.45758 | 34798 ft | 449 kts | 280° |
| 2026-05-08 18:06 | 26.32201 | 50.42443 | 35721 ft | 448 kts | 280° |
| 2026-05-08 18:06 | 26.33104 | 50.39155 | 36746 ft | 444 kts | 280° |
| 2026-05-08 18:07 | 26.34035 | 50.35749 | 37532 ft | 446 kts | 280° |
| 2026-05-08 18:07 | 26.34950 | 50.32406 | 38059 ft | 452 kts | 279° |
| 2026-05-08 18:07 | 26.35874 | 50.29025 | 38582 ft | 457 kts | 279° |
| 2026-05-08 18:07 | 26.36814 | 50.25588 | 39135 ft | 461 kts | 279° |
| 2026-05-08 18:08 | 26.37748 | 50.22168 | 39671 ft | 464 kts | 279° |
| 2026-05-08 18:08 | 26.38688 | 50.18721 | 40228 ft | 461 kts | 279° |
| 2026-05-08 18:08 | 26.39624 | 50.15293 | 40681 ft | 460 kts | 279° |
| 2026-05-08 18:08 | 26.40543 | 50.11913 | 40983 ft | 457 kts | 279° |
| 2026-05-08 18:09 | 26.41475 | 50.08487 | 41295 ft | 456 kts | 279° |
| 2026-05-08 18:09 | 26.42384 | 50.05141 | 41602 ft | 454 kts | 279° |
| 2026-05-08 18:09 | 26.43307 | 50.01735 | 41929 ft | 454 kts | 279° |
| 2026-05-08 18:09 | 26.44214 | 49.98387 | 42248 ft | 455 kts | 279° |
| 2026-05-08 18:10 | 26.45129 | 49.95009 | 42564 ft | 455 kts | 279° |
| 2026-05-08 18:10 | 26.46054 | 49.91589 | 42860 ft | 456 kts | 279° |
| 2026-05-08 18:10 | 26.47897 | 49.84767 | 42875 ft | 457 kts | 279° |
| 2026-05-08 18:11 | 26.50413 | 49.78236 | 42892 ft | 473 kts | 300° |
| 2026-05-08 18:11 | 26.52724 | 49.75592 | 42868 ft | 490 kts | 314° |
| 2026-05-08 18:11 | 26.55650 | 49.73530 | 42902 ft | 499 kts | 322° |
| 2026-05-08 18:12 | 26.61624 | 49.69434 | 42888 ft | 500 kts | 320° |
| 2026-05-08 18:12 | 26.67512 | 49.65262 | 42875 ft | 498 kts | 320° |
| 2026-05-08 18:13 | 26.73372 | 49.61091 | 42889 ft | 497 kts | 320° |
| 2026-05-08 18:13 | 26.79215 | 49.56927 | 42879 ft | 498 kts | 320° |
| 2026-05-08 18:14 | 26.85166 | 49.52679 | 42886 ft | 506 kts | 320° |
| 2026-05-08 18:14 | 26.91121 | 49.48427 | 42899 ft | 504 kts | 320° |
| 2026-05-08 18:15 | 26.97034 | 49.44199 | 42888 ft | 501 kts | 319° |
| 2026-05-08 18:15 | 26.99898 | 49.41954 | 42874 ft | 490 kts | 310° |
| 2026-05-08 18:15 | 27.02111 | 49.39151 | 42900 ft | 474 kts | 296° |
| 2026-05-08 18:16 | 27.05444 | 49.32777 | 42906 ft | 469 kts | 291° |
| 2026-05-08 18:16 | 27.08659 | 49.26404 | 42905 ft | 467 kts | 291° |
| 2026-05-08 18:17 | 27.11848 | 49.20055 | 42906 ft | 465 kts | 290° |
| 2026-05-08 18:17 | 27.15015 | 49.13743 | 42885 ft | 466 kts | 290° |
| 2026-05-08 18:18 | 27.18202 | 49.07379 | 42906 ft | 466 kts | 290° |
| 2026-05-08 18:18 | 27.21375 | 49.01033 | 42914 ft | 469 kts | 290° |
| 2026-05-08 18:19 | 27.24574 | 48.94628 | 42911 ft | 469 kts | 290° |
| 2026-05-08 18:19 | 27.27761 | 48.88240 | 42923 ft | 464 kts | 290° |
| 2026-05-08 18:20 | 27.30917 | 48.81896 | 42918 ft | 466 kts | 290° |
| 2026-05-08 18:20 | 27.34083 | 48.75531 | 42927 ft | 466 kts | 290° |
| 2026-05-08 18:21 | 27.37250 | 48.69147 | 42931 ft | 463 kts | 290° |
| 2026-05-08 18:21 | 27.40381 | 48.62829 | 42927 ft | 461 kts | 290° |
| 2026-05-08 18:22 | 27.43514 | 48.56501 | 42933 ft | 461 kts | 290° |
| 2026-05-08 18:22 | 27.46642 | 48.50174 | 42932 ft | 457 kts | 290° |
| 2026-05-08 18:23 | 27.49714 | 48.43948 | 42937 ft | 451 kts | 290° |
| 2026-05-08 18:23 | 27.52759 | 48.37765 | 42935 ft | 453 kts | 290° |
| 2026-05-08 18:24 | 27.55873 | 48.31436 | 42968 ft | 456 kts | 290° |
| 2026-05-08 18:24 | 27.59011 | 48.25050 | 42963 ft | 454 kts | 289° |
| 2026-05-08 18:25 | 27.62114 | 48.18724 | 42971 ft | 452 kts | 289° |
| 2026-05-08 18:25 | 27.65159 | 48.12507 | 42969 ft | 450 kts | 289° |
| 2026-05-08 18:26 | 27.68185 | 48.06324 | 42965 ft | 448 kts | 289° |
| 2026-05-08 18:26 | 27.71194 | 48.00159 | 42984 ft | 450 kts | 289° |
| 2026-05-08 18:27 | 27.73727 | 47.94965 | 42999 ft | 452 kts | 289° |
| 2026-05-08 18:27 | 27.77278 | 47.87678 | 42996 ft | 448 kts | 289° |
| 2026-05-08 18:28 | 27.80269 | 47.81523 | 42991 ft | 444 kts | 289° |
| 2026-05-08 18:28 | 27.83274 | 47.75333 | 43001 ft | 445 kts | 289° |
| 2026-05-08 18:29 | 27.85660 | 47.69001 | 43019 ft | 435 kts | 281° |
| 2026-05-08 18:29 | 27.87755 | 47.62553 | 43020 ft | 434 kts | 280° |
| 2026-05-08 18:30 | 27.89840 | 47.56140 | 43007 ft | 435 kts | 280° |
| 2026-05-08 18:30 | 27.91926 | 47.49697 | 43013 ft | 434 kts | 281° |
| 2026-05-08 18:31 | 27.94007 | 47.43272 | 43013 ft | 430 kts | 280° |
| 2026-05-08 18:31 | 27.96079 | 47.36850 | 43016 ft | 434 kts | 281° |
| 2026-05-08 18:32 | 27.98169 | 47.30368 | 43047 ft | 430 kts | 280° |
| 2026-05-08 18:32 | 28.00240 | 47.23931 | 43048 ft | 428 kts | 280° |
| 2026-05-08 18:33 | 28.02320 | 47.17455 | 43034 ft | 431 kts | 279° |
| 2026-05-08 18:33 | 28.04382 | 47.11026 | 43025 ft | 429 kts | 280° |
| 2026-05-08 18:34 | 28.06415 | 47.04677 | 43047 ft | 428 kts | 279° |
| 2026-05-08 18:34 | 28.08446 | 46.98316 | 43039 ft | 426 kts | 279° |
| 2026-05-08 18:35 | 28.10477 | 46.91940 | 43027 ft | 429 kts | 279° |
| 2026-05-08 18:35 | 28.12571 | 46.85359 | 43022 ft | 428 kts | 279° |
| 2026-05-08 18:36 | 28.14607 | 46.78955 | 43026 ft | 428 kts | 279° |
| 2026-05-08 18:36 | 28.16660 | 46.72474 | 43019 ft | 429 kts | 280° |
| 2026-05-08 18:37 | 28.18675 | 46.66111 | 43012 ft | 427 kts | 279° |
| 2026-05-08 18:37 | 28.20699 | 46.59701 | 43003 ft | 430 kts | 279° |
| 2026-05-08 18:38 | 28.22724 | 46.53278 | 43014 ft | 431 kts | 279° |
| 2026-05-08 18:38 | 28.24753 | 46.46834 | 43005 ft | 432 kts | 279° |
| 2026-05-08 18:39 | 28.26767 | 46.40422 | 43008 ft | 429 kts | 279° |
| 2026-05-08 18:39 | 28.28767 | 46.34043 | 43018 ft | 429 kts | 279° |
| 2026-05-08 18:40 | 28.30781 | 46.27607 | 43034 ft | 434 kts | 279° |
| 2026-05-08 18:40 | 28.32780 | 46.21215 | 43023 ft | 430 kts | 279° |
| 2026-05-08 18:41 | 28.34766 | 46.14839 | 43040 ft | 427 kts | 279° |
| 2026-05-08 18:41 | 28.36918 | 46.08515 | 43015 ft | 435 kts | 282° |
| 2026-05-08 18:42 | 28.39311 | 46.02130 | 43018 ft | 438 kts | 282° |
| 2026-05-08 18:42 | 28.41680 | 45.95772 | 43008 ft | 435 kts | 282° |
| 2026-05-08 18:43 | 28.44036 | 45.89425 | 43027 ft | 433 kts | 282° |
| 2026-05-08 18:43 | 28.46376 | 45.83104 | 43022 ft | 436 kts | 283° |
| 2026-05-08 18:44 | 28.48750 | 45.76693 | 43029 ft | 439 kts | 282° |
| 2026-05-08 18:44 | 28.51115 | 45.70289 | 43029 ft | 441 kts | 283° |
| 2026-05-08 18:45 | 28.53496 | 45.63834 | 43022 ft | 435 kts | 283° |
| 2026-05-08 18:45 | 28.55843 | 45.57458 | 43039 ft | 439 kts | 283° |
| 2026-05-08 18:46 | 28.58223 | 45.50983 | 43029 ft | 443 kts | 283° |
| 2026-05-08 18:46 | 28.60604 | 45.44494 | 43050 ft | 443 kts | 283° |
| 2026-05-08 18:47 | 28.62976 | 45.38016 | 43028 ft | 444 kts | 283° |
| 2026-05-08 18:47 | 28.65382 | 45.31431 | 43063 ft | 445 kts | 283° |
| 2026-05-08 18:48 | 28.67768 | 45.24893 | 43063 ft | 443 kts | 282° |
| 2026-05-08 18:48 | 28.70194 | 45.18232 | 43057 ft | 445 kts | 282° |
| 2026-05-08 18:49 | 28.72587 | 45.11650 | 43089 ft | 448 kts | 283° |
| 2026-05-08 18:49 | 28.74962 | 45.05114 | 43037 ft | 446 kts | 282° |
| 2026-05-08 18:50 | 28.77334 | 44.98561 | 43096 ft | 444 kts | 283° |
| 2026-05-08 18:50 | 28.79707 | 44.92001 | 43069 ft | 445 kts | 283° |
| 2026-05-08 18:51 | 28.82056 | 44.85495 | 43097 ft | 447 kts | 283° |
| 2026-05-08 18:51 | 28.84440 | 44.78875 | 43035 ft | 449 kts | 283° |
| 2026-05-08 18:52 | 28.87174 | 44.72510 | 43112 ft | 459 kts | 295° |
| 2026-05-08 18:52 | 28.90807 | 44.66430 | 43060 ft | 465 kts | 295° |
| 2026-05-08 18:53 | 28.94447 | 44.60293 | 43067 ft | 464 kts | 294° |
| 2026-05-08 18:53 | 28.98069 | 44.54166 | 43068 ft | 465 kts | 295° |
| 2026-05-08 18:54 | 29.01691 | 44.48032 | 43066 ft | 463 kts | 295° |
| 2026-05-08 18:54 | 29.05299 | 44.41914 | 43070 ft | 462 kts | 295° |
| 2026-05-08 18:55 | 29.10702 | 44.32731 | 43079 ft | 464 kts | 295° |
| 2026-05-08 18:56 | 29.14331 | 44.26553 | 43080 ft | 465 kts | 295° |
| 2026-05-08 18:56 | 29.17918 | 44.20437 | 43085 ft | 461 kts | 295° |
| 2026-05-08 18:57 | 29.21503 | 44.14319 | 43083 ft | 461 kts | 295° |
| 2026-05-08 18:57 | 29.25078 | 44.08204 | 43083 ft | 461 kts | 295° |
| 2026-05-08 18:58 | 29.28635 | 44.02111 | 43087 ft | 461 kts | 296° |
| 2026-05-08 18:58 | 29.32231 | 43.95947 | 43084 ft | 461 kts | 295° |
| 2026-05-08 18:59 | 29.35794 | 43.89824 | 43099 ft | 462 kts | 295° |
| 2026-05-08 18:59 | 29.39382 | 43.83654 | 43090 ft | 461 kts | 295° |
| 2026-05-08 19:00 | 29.42945 | 43.77516 | 43114 ft | 462 kts | 295° |
| 2026-05-08 19:00 | 29.46513 | 43.71361 | 43078 ft | 462 kts | 296° |
| 2026-05-08 19:01 | 29.50061 | 43.65231 | 43081 ft | 457 kts | 296° |
| 2026-05-08 19:01 | 29.53605 | 43.59097 | 43053 ft | 460 kts | 296° |
| 2026-05-08 19:02 | 29.57170 | 43.52918 | 43078 ft | 464 kts | 296° |
| 2026-05-08 19:02 | 29.60713 | 43.46772 | 43070 ft | 456 kts | 296° |
| 2026-05-08 19:03 | 29.64196 | 43.40715 | 43061 ft | 456 kts | 296° |
| 2026-05-08 19:03 | 29.67734 | 43.34556 | 43070 ft | 458 kts | 296° |
| 2026-05-08 19:04 | 29.71237 | 43.28448 | 43078 ft | 459 kts | 296° |
| 2026-05-08 19:04 | 29.74766 | 43.22286 | 43079 ft | 458 kts | 296° |
| 2026-05-08 19:05 | 29.78263 | 43.16173 | 43082 ft | 456 kts | 296° |
| 2026-05-08 19:05 | 29.81739 | 43.10083 | 43082 ft | 457 kts | 296° |
| 2026-05-08 19:06 | 29.85247 | 43.03930 | 43082 ft | 458 kts | 297° |
| 2026-05-08 19:06 | 29.88738 | 42.97796 | 43078 ft | 459 kts | 297° |
| 2026-05-08 19:07 | 29.92242 | 42.91633 | 43074 ft | 459 kts | 297° |
| 2026-05-08 19:07 | 29.95732 | 42.85484 | 43069 ft | 456 kts | 297° |
| 2026-05-08 19:08 | 29.99221 | 42.79326 | 43067 ft | 456 kts | 297° |
| 2026-05-08 19:08 | 30.02699 | 42.73180 | 43064 ft | 457 kts | 297° |
| 2026-05-08 19:09 | 30.06153 | 42.67066 | 43072 ft | 455 kts | 297° |
| 2026-05-08 19:09 | 30.09620 | 42.60918 | 43076 ft | 456 kts | 297° |
| 2026-05-08 19:10 | 30.13070 | 42.54795 | 43073 ft | 456 kts | 297° |
| 2026-05-08 19:10 | 30.16528 | 42.48647 | 43068 ft | 455 kts | 297° |
| 2026-05-08 19:11 | 30.19990 | 42.42480 | 43074 ft | 455 kts | 298° |
| 2026-05-08 19:11 | 30.23454 | 42.36302 | 43090 ft | 456 kts | 298° |
| 2026-05-08 19:12 | 30.26897 | 42.30154 | 43085 ft | 452 kts | 297° |
| 2026-05-08 19:12 | 30.30343 | 42.23987 | 43087 ft | 453 kts | 298° |
| 2026-05-08 19:13 | 30.33752 | 42.17877 | 43086 ft | 452 kts | 298° |
| 2026-05-08 19:13 | 30.37180 | 42.11725 | 43085 ft | 452 kts | 298° |
| 2026-05-08 19:14 | 30.40578 | 42.05619 | 43081 ft | 451 kts | 298° |
| 2026-05-08 19:14 | 30.43979 | 41.99496 | 43084 ft | 451 kts | 298° |
| 2026-05-08 19:15 | 30.47363 | 41.93394 | 43083 ft | 452 kts | 298° |
| 2026-05-08 19:15 | 30.50777 | 41.87231 | 43093 ft | 451 kts | 298° |
| 2026-05-08 19:16 | 30.54148 | 41.81135 | 43088 ft | 449 kts | 298° |
| 2026-05-08 19:16 | 30.57509 | 41.75049 | 43094 ft | 443 kts | 298° |
| 2026-05-08 19:17 | 30.60839 | 41.69006 | 43097 ft | 443 kts | 298° |
| 2026-05-08 19:17 | 30.64164 | 41.62964 | 43106 ft | 445 kts | 299° |
| 2026-05-08 19:18 | 30.67490 | 41.56914 | 43100 ft | 445 kts | 299° |
| 2026-05-08 19:18 | 30.70837 | 41.50814 | 43098 ft | 445 kts | 299° |
| 2026-05-08 19:19 | 30.74167 | 41.44736 | 43109 ft | 444 kts | 299° |
| 2026-05-08 19:19 | 30.77474 | 41.38692 | 43104 ft | 444 kts | 299° |
| 2026-05-08 19:20 | 30.80778 | 41.32643 | 43111 ft | 444 kts | 298° |
| 2026-05-08 19:20 | 30.84114 | 41.26525 | 43114 ft | 444 kts | 299° |
| 2026-05-08 19:21 | 30.87413 | 41.20468 | 43114 ft | 443 kts | 299° |
| 2026-05-08 19:21 | 30.90706 | 41.14385 | 43115 ft | 443 kts | 297° |
| 2026-05-08 19:22 | 30.93650 | 41.08081 | 43122 ft | 442 kts | 295° |
| 2026-05-08 19:22 | 30.96547 | 41.01808 | 43129 ft | 442 kts | 295° |
| 2026-05-08 19:23 | 30.99464 | 40.95481 | 43139 ft | 443 kts | 295° |
| 2026-05-08 19:23 | 31.02382 | 40.89146 | 43141 ft | 442 kts | 295° |
| 2026-05-08 19:24 | 31.05272 | 40.82855 | 43144 ft | 440 kts | 296° |
| 2026-05-08 19:24 | 31.08189 | 40.76501 | 43156 ft | 440 kts | 296° |
| 2026-05-08 19:25 | 31.11071 | 40.70208 | 43162 ft | 441 kts | 296° |
| 2026-05-08 19:25 | 31.13943 | 40.63929 | 43160 ft | 438 kts | 296° |
| 2026-05-08 19:26 | 31.16822 | 40.57622 | 43167 ft | 439 kts | 296° |
| 2026-05-08 19:26 | 31.19690 | 40.51329 | 43164 ft | 438 kts | 296° |
| 2026-05-08 19:27 | 31.22552 | 40.45041 | 43162 ft | 438 kts | 296° |
| 2026-05-08 19:27 | 31.25420 | 40.38728 | 43175 ft | 436 kts | 296° |
| 2026-05-08 19:28 | 31.28261 | 40.32464 | 43161 ft | 437 kts | 295° |
| 2026-05-08 19:28 | 31.31106 | 40.26180 | 43170 ft | 437 kts | 295° |
| 2026-05-08 19:29 | 31.33965 | 40.19854 | 43162 ft | 439 kts | 295° |
| 2026-05-08 19:29 | 31.36839 | 40.13486 | 43174 ft | 443 kts | 296° |
| 2026-05-08 19:30 | 31.39712 | 40.07108 | 43181 ft | 441 kts | 296° |
| 2026-05-08 19:30 | 31.42559 | 40.00777 | 43169 ft | 440 kts | 296° |
| 2026-05-08 19:31 | 31.45421 | 39.94399 | 43163 ft | 442 kts | 296° |
| 2026-05-08 19:31 | 31.48275 | 39.88036 | 43168 ft | 441 kts | 296° |
| 2026-05-08 19:32 | 31.51124 | 39.81663 | 43168 ft | 441 kts | 296° |
| 2026-05-08 19:32 | 31.53967 | 39.75300 | 43163 ft | 441 kts | 296° |
| 2026-05-08 19:33 | 31.56818 | 39.68907 | 43162 ft | 440 kts | 296° |
| 2026-05-08 19:33 | 31.59647 | 39.62549 | 43155 ft | 439 kts | 296° |
| 2026-05-08 19:34 | 31.62490 | 39.56150 | 43155 ft | 440 kts | 296° |
| 2026-05-08 19:34 | 31.65317 | 39.49778 | 43165 ft | 439 kts | 296° |
| 2026-05-08 19:35 | 31.68132 | 39.43420 | 43159 ft | 439 kts | 296° |
| 2026-05-08 19:35 | 31.70936 | 39.37075 | 43155 ft | 439 kts | 297° |
| 2026-05-08 19:36 | 31.73751 | 39.30698 | 43163 ft | 440 kts | 296° |
| 2026-05-08 19:36 | 31.76580 | 39.24275 | 43170 ft | 440 kts | 296° |
| 2026-05-08 19:37 | 31.79550 | 39.17988 | 43147 ft | 441 kts | 307° |
| 2026-05-08 19:37 | 31.81798 | 39.15485 | 43163 ft | 445 kts | 322° |
| 2026-05-08 19:37 | 31.84552 | 39.13721 | 43185 ft | 450 kts | 331° |
| 2026-05-08 19:38 | 31.90201 | 39.10459 | 43156 ft | 449 kts | 330° |
| 2026-05-08 19:38 | 31.95788 | 39.07185 | 43153 ft | 448 kts | 330° |
| 2026-05-08 19:39 | 32.01396 | 39.03889 | 43157 ft | 448 kts | 330° |
| 2026-05-08 19:39 | 32.06967 | 39.00610 | 43156 ft | 449 kts | 330° |
| 2026-05-08 19:40 | 32.12572 | 38.97307 | 43159 ft | 447 kts | 330° |
| 2026-05-08 19:40 | 32.18153 | 38.94012 | 43161 ft | 446 kts | 330° |
| 2026-05-08 19:41 | 32.23709 | 38.90729 | 43156 ft | 447 kts | 330° |
| 2026-05-08 19:41 | 32.29311 | 38.87413 | 43152 ft | 446 kts | 330° |
| 2026-05-08 19:42 | 32.34851 | 38.84130 | 43158 ft | 446 kts | 330° |
| 2026-05-08 19:42 | 32.40425 | 38.80822 | 43152 ft | 444 kts | 330° |
| 2026-05-08 19:43 | 32.45941 | 38.77544 | 43141 ft | 444 kts | 330° |
| 2026-05-08 19:43 | 32.51463 | 38.74258 | 43153 ft | 446 kts | 330° |
| 2026-05-08 19:44 | 32.57026 | 38.70942 | 43137 ft | 444 kts | 330° |
| 2026-05-08 19:44 | 32.62542 | 38.67650 | 43134 ft | 442 kts | 330° |
| 2026-05-08 19:45 | 32.68060 | 38.64353 | 43126 ft | 442 kts | 330° |
| 2026-05-08 19:45 | 32.73528 | 38.61080 | 43133 ft | 442 kts | 330° |
| 2026-05-08 19:46 | 32.79063 | 38.57763 | 43137 ft | 443 kts | 331° |
| 2026-05-08 19:46 | 32.87298 | 38.52819 | 43125 ft | 442 kts | 331° |
| 2026-05-08 19:47 | 32.92819 | 38.49500 | 43125 ft | 441 kts | 331° |
| 2026-05-08 19:47 | 32.98280 | 38.46212 | 43125 ft | 440 kts | 330° |
| 2026-05-08 19:48 | 33.03793 | 38.42886 | 43113 ft | 441 kts | 331° |
| 2026-05-08 19:48 | 33.09266 | 38.39581 | 43115 ft | 440 kts | 331° |
| 2026-05-08 19:49 | 33.14765 | 38.36256 | 43128 ft | 441 kts | 331° |
| 2026-05-08 19:49 | 33.20265 | 38.32925 | 43132 ft | 441 kts | 330° |
| 2026-05-08 19:50 | 33.25719 | 38.29617 | 43125 ft | 441 kts | 330° |
| 2026-05-08 19:50 | 33.31205 | 38.26285 | 43128 ft | 441 kts | 330° |
| 2026-05-08 19:51 | 33.36685 | 38.22952 | 43125 ft | 441 kts | 331° |
| 2026-05-08 19:51 | 33.42157 | 38.19620 | 43133 ft | 440 kts | 330° |
| 2026-05-08 19:52 | 33.47647 | 38.16272 | 43134 ft | 440 kts | 330° |
| 2026-05-08 19:52 | 33.53112 | 38.12934 | 43133 ft | 441 kts | 330° |
| 2026-05-08 19:53 | 33.58584 | 38.09587 | 43130 ft | 440 kts | 330° |
| 2026-05-08 19:53 | 33.64024 | 38.06254 | 43132 ft | 440 kts | 330° |
| 2026-05-08 19:54 | 33.69493 | 38.02900 | 43135 ft | 440 kts | 330° |
| 2026-05-08 19:54 | 33.74952 | 37.99546 | 43150 ft | 440 kts | 331° |
| 2026-05-08 19:55 | 33.80435 | 37.96172 | 43144 ft | 441 kts | 330° |
| 2026-05-08 19:55 | 33.85855 | 37.92683 | 43124 ft | 438 kts | 323° |
| 2026-05-08 19:56 | 33.88016 | 37.90174 | 43155 ft | 435 kts | 307° |
| 2026-05-08 19:56 | 33.89710 | 37.87156 | 43163 ft | 437 kts | 303° |
| 2026-05-08 19:56 | 33.93003 | 37.80932 | 43174 ft | 439 kts | 302° |
| 2026-05-08 19:57 | 33.96239 | 37.74754 | 43167 ft | 436 kts | 302° |
| 2026-05-08 19:57 | 33.99476 | 37.68556 | 43168 ft | 435 kts | 302° |
| 2026-05-08 19:58 | 34.02712 | 37.62351 | 43176 ft | 436 kts | 302° |
| 2026-05-08 19:58 | 34.05915 | 37.56197 | 43175 ft | 438 kts | 302° |
| 2026-05-08 19:59 | 34.09210 | 37.49856 | 43178 ft | 449 kts | 302° |
| 2026-05-08 19:59 | 34.12530 | 37.43454 | 43186 ft | 448 kts | 302° |
| 2026-05-08 20:00 | 34.15820 | 37.37100 | 43176 ft | 445 kts | 302° |
| 2026-05-08 20:00 | 34.19099 | 37.30756 | 43186 ft | 443 kts | 302° |
| 2026-05-08 20:01 | 34.20622 | 37.27604 | 43157 ft | 426 kts | 295° |
| 2026-05-08 20:01 | 34.21416 | 37.24210 | 43163 ft | 413 kts | 280° |
| 2026-05-08 20:01 | 34.22041 | 37.17306 | 43193 ft | 415 kts | 278° |
| 2026-05-08 20:02 | 34.22607 | 37.10254 | 43198 ft | 426 kts | 278° |
| 2026-05-08 20:02 | 34.22886 | 37.06688 | 42859 ft | 431 kts | 278° |
| 2026-05-08 20:02 | 34.23163 | 37.03123 | 42386 ft | 428 kts | 278° |
| 2026-05-08 20:03 | 34.23440 | 36.99535 | 41878 ft | 423 kts | 279° |
| 2026-05-08 20:03 | 34.23711 | 36.96032 | 41355 ft | 418 kts | 279° |
| 2026-05-08 20:03 | 34.23981 | 36.92540 | 40844 ft | 412 kts | 279° |
| 2026-05-08 20:03 | 34.24241 | 36.89135 | 40327 ft | 406 kts | 279° |
| 2026-05-08 20:04 | 34.24497 | 36.85780 | 39809 ft | 401 kts | 280° |
| 2026-05-08 20:04 | 34.24755 | 36.82421 | 39271 ft | 398 kts | 280° |
| 2026-05-08 20:04 | 34.25006 | 36.79112 | 38779 ft | 400 kts | 281° |
| 2026-05-08 20:04 | 34.25261 | 36.75748 | 38282 ft | 401 kts | 280° |
| 2026-05-08 20:05 | 34.25515 | 36.72390 | 37787 ft | 401 kts | 281° |
| 2026-05-08 20:05 | 34.25767 | 36.69030 | 37288 ft | 401 kts | 281° |
| 2026-05-08 20:05 | 34.26017 | 36.65683 | 36794 ft | 400 kts | 281° |
| 2026-05-08 20:05 | 34.26268 | 36.62322 | 36300 ft | 400 kts | 281° |
| 2026-05-08 20:06 | 34.26516 | 36.58980 | 35806 ft | 401 kts | 281° |
| 2026-05-08 20:06 | 34.26679 | 36.55623 | 35310 ft | 403 kts | 279° |
| 2026-05-08 20:06 | 34.26805 | 36.52242 | 34826 ft | 405 kts | 278° |
| 2026-05-08 20:06 | 34.26933 | 36.48826 | 34321 ft | 407 kts | 279° |
| 2026-05-08 20:07 | 34.27064 | 36.45394 | 33821 ft | 406 kts | 279° |
| 2026-05-08 20:07 | 34.27193 | 36.41964 | 33346 ft | 407 kts | 279° |
| 2026-05-08 20:07 | 34.27322 | 36.38569 | 32852 ft | 413 kts | 279° |
| 2026-05-08 20:07 | 34.27453 | 36.35073 | 32342 ft | 415 kts | 278° |
| 2026-05-08 20:08 | 34.27583 | 36.31558 | 31799 ft | 419 kts | 278° |
| 2026-05-08 20:08 | 34.27713 | 36.28008 | 31206 ft | 422 kts | 278° |
| 2026-05-08 20:08 | 34.27844 | 36.24436 | 30678 ft | 428 kts | 277° |
| 2026-05-08 20:08 | 34.27972 | 36.20862 | 30150 ft | 429 kts | 277° |
| 2026-05-08 20:09 | 34.28101 | 36.17257 | 29613 ft | 427 kts | 277° |
| 2026-05-08 20:09 | 34.28228 | 36.13675 | 29081 ft | 424 kts | 277° |
| 2026-05-08 20:09 | 34.28353 | 36.10139 | 28550 ft | 419 kts | 277° |
| 2026-05-08 20:09 | 34.28476 | 36.06633 | 28026 ft | 418 kts | 277° |
| 2026-05-08 20:10 | 34.28596 | 36.03155 | 27504 ft | 417 kts | 277° |
| 2026-05-08 20:10 | 34.28722 | 35.99625 | 26984 ft | 416 kts | 277° |
| 2026-05-08 20:10 | 34.28881 | 35.96160 | 26459 ft | 412 kts | 277° |
| 2026-05-08 20:10 | 34.29039 | 35.92731 | 25938 ft | 408 kts | 277° |
| 2026-05-08 20:11 | 34.29194 | 35.89319 | 25424 ft | 406 kts | 277° |
| 2026-05-08 20:11 | 34.29346 | 35.85931 | 24923 ft | 405 kts | 277° |
| 2026-05-08 20:11 | 34.29499 | 35.82530 | 24411 ft | 404 kts | 276° |
| 2026-05-08 20:11 | 34.29649 | 35.79147 | 23886 ft | 401 kts | 276° |
| 2026-05-08 20:12 | 34.29796 | 35.75826 | 23389 ft | 399 kts | 276° |
| 2026-05-08 20:12 | 34.29840 | 35.72447 | 22868 ft | 399 kts | 268° |
| 2026-05-08 20:12 | 34.29107 | 35.69207 | 22357 ft | 405 kts | 250° |
| 2026-05-08 20:12 | 34.27578 | 35.66346 | 21823 ft | 410 kts | 234° |
| 2026-05-08 20:13 | 34.25728 | 35.63752 | 21299 ft | 407 kts | 233° |
| 2026-05-08 20:13 | 34.23869 | 35.61119 | 20786 ft | 405 kts | 233° |
| 2026-05-08 20:13 | 34.21933 | 35.58358 | 20242 ft | 401 kts | 233° |
| 2026-05-08 20:13 | 34.20126 | 35.55777 | 19749 ft | 398 kts | 233° |
| 2026-05-08 20:14 | 34.18353 | 35.53244 | 19268 ft | 395 kts | 233° |
| 2026-05-08 20:14 | 34.16583 | 35.50715 | 18754 ft | 391 kts | 233° |
| 2026-05-08 20:14 | 34.14835 | 35.48220 | 18268 ft | 387 kts | 232° |
| 2026-05-08 20:14 | 34.13107 | 35.45754 | 17815 ft | 385 kts | 232° |
| 2026-05-08 20:15 | 34.11387 | 35.43303 | 17330 ft | 382 kts | 232° |
| 2026-05-08 20:15 | 34.09680 | 35.40871 | 16858 ft | 379 kts | 232° |
| 2026-05-08 20:15 | 34.07957 | 35.38418 | 16367 ft | 377 kts | 232° |
| 2026-05-08 20:15 | 34.06267 | 35.36013 | 15924 ft | 374 kts | 232° |
| 2026-05-08 20:16 | 34.04778 | 35.33896 | 15503 ft | 373 kts | 231° |
| 2026-05-08 20:16 | 34.03020 | 35.31398 | 15104 ft | 362 kts | 231° |
| 2026-05-08 20:16 | 34.01284 | 35.29045 | 14641 ft | 352 kts | 224° |
| 2026-05-08 20:16 | 33.99085 | 35.27464 | 14070 ft | 348 kts | 201° |
| 2026-05-08 20:17 | 33.96630 | 35.26763 | 13582 ft | 342 kts | 188° |
| 2026-05-08 20:17 | 33.94060 | 35.26527 | 12993 ft | 337 kts | 186° |
| 2026-05-08 20:17 | 33.91729 | 35.26330 | 12496 ft | 332 kts | 185° |
| 2026-05-08 20:17 | 33.89378 | 35.26120 | 12001 ft | 327 kts | 185° |
| 2026-05-08 20:18 | 33.87005 | 35.25895 | 11468 ft | 323 kts | 185° |
| 2026-05-08 20:18 | 33.84627 | 35.25662 | 10938 ft | 319 kts | 185° |
| 2026-05-08 20:18 | 33.82364 | 35.25433 | 10400 ft | 315 kts | 185° |
| 2026-05-08 20:18 | 33.80195 | 35.25203 | 9908 ft | 311 kts | 185° |
| 2026-05-08 20:19 | 33.78053 | 35.24968 | 9393 ft | 308 kts | 185° |
| 2026-05-08 20:19 | 33.75932 | 35.24726 | 8889 ft | 305 kts | 185° |
| 2026-05-08 20:19 | 33.73835 | 35.24477 | 8371 ft | 302 kts | 185° |
| 2026-05-08 20:19 | 33.71756 | 35.24220 | 7864 ft | 300 kts | 185° |
| 2026-05-08 20:20 | 33.69693 | 35.23960 | 7369 ft | 298 kts | 185° |
| 2026-05-08 20:20 | 33.67638 | 35.23695 | 6865 ft | 296 kts | 185° |
| 2026-05-08 20:20 | 33.65604 | 35.23434 | 6366 ft | 294 kts | 185° |
| 2026-05-08 20:20 | 33.63506 | 35.23159 | 5812 ft | 293 kts | 185° |
| 2026-05-08 20:21 | 33.61279 | 35.23031 | 5245 ft | 287 kts | 169° |
| 2026-05-08 20:21 | 33.59403 | 35.24182 | 4812 ft | 280 kts | 134° |
| 2026-05-08 20:21 | 33.58309 | 35.26264 | 4352 ft | 274 kts | 106° |
| 2026-05-08 20:21 | 33.57962 | 35.28706 | 4012 ft | 264 kts | 93° |
| 2026-05-08 20:22 | 33.58363 | 35.30920 | 3805 ft | 248 kts | 59° |
| 2026-05-08 20:22 | 33.59610 | 35.32466 | 3620 ft | 237 kts | 36° |
| 2026-05-08 20:22 | 33.61131 | 35.33685 | 3442 ft | 251 kts | 33° |
| 2026-05-08 20:22 | 33.62720 | 35.34932 | 3343 ft | 242 kts | 33° |
| 2026-05-08 20:23 | 33.64198 | 35.36151 | 3211 ft | 231 kts | 35° |
| 2026-05-08 20:23 | 33.65594 | 35.37270 | 3072 ft | 222 kts | 32° |
| 2026-05-08 20:23 | 33.66962 | 35.38318 | 2931 ft | 213 kts | 32° |
| 2026-05-08 20:23 | 33.68292 | 35.39335 | 2735 ft | 209 kts | 32° |
| 2026-05-08 20:24 | 33.69602 | 35.40308 | 2538 ft | 204 kts | 31° |
| 2026-05-08 20:24 | 33.70843 | 35.41228 | 2359 ft | 184 kts | 31° |
| 2026-05-08 20:24 | 33.71948 | 35.42047 | 2088 ft | 171 kts | 31° |
| 2026-05-08 20:24 | 33.73042 | 35.42839 | 1812 ft | 161 kts | 31° |
| 2026-05-08 20:25 | 33.74028 | 35.43593 | 1470 ft | 151 kts | 32° |
| 2026-05-08 20:25 | 33.74920 | 35.44304 | 1336 ft | 138 kts | 32° |
| 2026-05-08 20:25 | 33.75767 | 35.44967 | 1022 ft | 134 kts | 32° |
| 2026-05-08 20:25 | 33.76565 | 35.45585 | 837 ft | 122 kts | 31° |
| 2026-05-08 20:26 | 33.77323 | 35.46171 | 667 ft | 121 kts | 32° |
| 2026-05-08 20:26 | 33.78044 | 35.46733 | 530 ft | 117 kts | 32° |
| 2026-05-08 20:26 | 33.78755 | 35.47282 | 428 ft | 115 kts | 31° |
| 2026-05-08 20:26 | 33.79462 | 35.47821 | 274 ft | 116 kts | 31° |
| 2026-05-08 20:27 | 33.80179 | 35.48367 | 121 ft | 116 kts | 31° |
| 2026-05-08 20:27 | 33.80854 | 35.48890 | 67 ft | 100 kts | 31° |
| 2026-05-08 20:27 | 33.81387 | 35.49298 | 59 ft | 67 kts | 32° |
| 2026-05-08 20:27 | 33.81679 | 35.49518 | 58 ft | 31 kts | 27° |
| 2026-05-08 20:28 | 33.81856 | 35.49588 | 60 ft | 24 kts | 7° |
| 2026-05-08 20:28 | 33.82013 | 35.49600 | 62 ft | 19 kts | 2° |
| 2026-05-08 20:28 | 33.82085 | 35.49580 | 63 ft | 8 kts | 314° |
| 2026-05-08 20:28 | 33.82117 | 35.49504 | 62 ft | 15 kts | 296° |
| 2026-05-08 20:29 | 33.82170 | 35.49370 | 58 ft | 18 kts | 291° |
| 2026-05-08 20:29 | 33.82210 | 35.49203 | 55 ft | 20 kts | 283° |
| 2026-05-08 20:29 | 33.82244 | 35.49055 | 53 ft | 10 kts | 294° |
| 2026-05-08 20:29 | 33.82304 | 35.49011 | 53 ft | 9 kts | 348° |
| 2026-05-08 20:30 | 33.82401 | 35.48996 | 55 ft | 16 kts | 355° |
| 2026-05-08 20:30 | 33.82515 | 35.48984 | 57 ft | 14 kts | 354° |
| 2026-05-08 20:30 | 33.82606 | 35.48974 | 60 ft | 11 kts | 359° |
| 2026-05-08 20:30 | 33.82674 | 35.48980 | 62 ft | 9 kts | 8° |
| 2026-05-08 20:31 | 33.82762 | 35.48994 | 66 ft | 17 kts | 5° |
| 2026-05-08 20:31 | 33.82886 | 35.48990 | 70 ft | 14 kts | 355° |
| 2026-05-08 20:31 | 33.82983 | 35.48987 | 74 ft | 11 kts | 3° |
| 2026-05-08 20:31 | 33.83030 | 35.49021 | 76 ft | 5 kts | 71° |
| 2026-05-08 20:32 | 33.83030 | 35.49061 | 77 ft | 3 kts | 118° |
| 2026-05-08 20:32 | 33.83015 | 35.49070 | 77 ft | 0 kts | 164° |